createdAt,value
2022-10-29T00:04:50.057Z,5.70
2022-10-29T00:12:25.063Z,6.22
2022-10-29T00:27:35.095Z,5.45
2022-10-29T00:42:43.884Z,5.05
2022-10-29T00:57:56.466Z,6.90
2022-10-29T01:05:32.307Z,5.78
2022-10-29T01:13:20.165Z,4.75
2022-10-29T01:21:30.657Z,6.10
2022-10-29T01:29:21.070Z,5.38
2022-10-29T01:37:01.828Z,5.85
2022-10-29T01:44:40.567Z,4.75
2022-10-29T01:52:17.664Z,5.00
2022-10-29T01:59:56.103Z,5.30
2022-10-29T02:07:46.240Z,5.22
2022-10-29T02:15:24.461Z,5.15
2022-10-29T02:22:59.918Z,5.43
2022-10-29T02:30:33.635Z,4.32
2022-10-29T02:38:08.762Z,5.30
2022-10-29T02:45:42.392Z,5.03
2022-10-29T02:53:17.439Z,5.97
2022-10-29T03:08:26.490Z,5.72
2022-10-29T03:16:00.139Z,4.90
2022-10-29T03:23:35.180Z,5.05
2022-10-29T03:38:43.484Z,5.72
2022-10-29T03:46:17.071Z,6.25
2022-10-29T03:53:52.119Z,5.22
2022-10-29T04:09:01.779Z,5.18
2022-10-29T04:32:04.642Z,5.72
2022-10-29T04:39:39.745Z,5.45
2022-10-29T04:47:13.446Z,5.15
2022-10-29T04:54:48.547Z,4.78
2022-10-29T05:02:22.167Z,5.40
2022-10-29T05:09:57.137Z,5.18
2022-10-29T05:25:06.532Z,6.22
2022-10-29T05:32:40.091Z,5.93
2022-10-29T05:40:15.289Z,5.40
2022-10-29T05:47:49.515Z,5.35
2022-10-29T05:55:24.788Z,6.73
2022-10-29T06:02:59.479Z,5.07
2022-10-29T06:18:08.855Z,6.50
2022-10-29T06:25:43.855Z,5.38
2022-10-29T06:40:54.813Z,6.65
2022-10-29T06:48:28.689Z,5.32
2022-10-29T06:56:03.811Z,7.07
2022-10-29T07:03:37.486Z,6.45
2022-10-29T07:11:13.248Z,8.15
2022-10-29T07:18:46.897Z,6.60
2022-10-29T07:26:21.907Z,7.20
2022-10-29T07:41:30.540Z,6.97
2022-10-29T07:49:04.473Z,5.93
2022-10-29T07:56:42.376Z,6.35
2022-10-29T08:04:19.616Z,6.32
2022-10-29T08:11:54.836Z,7.53
2022-10-29T08:19:30.022Z,6.03
2022-10-29T08:27:05.249Z,6.30
2022-10-29T08:34:40.990Z,6.20
2022-10-29T08:42:29.567Z,6.50
2022-10-29T08:50:12.139Z,6.55
2022-10-29T08:57:53.581Z,5.78
2022-10-29T09:05:33.909Z,5.38
2022-10-29T09:13:26.804Z,5.28
2022-10-29T09:21:09.267Z,4.63
2022-10-29T09:28:55.126Z,5.22
2022-10-29T09:36:31.879Z,5.07
2022-10-29T09:44:16.094Z,4.88
2022-10-29T09:51:54.704Z,5.15
2022-10-29T09:59:32.999Z,5.35
2022-10-29T10:07:08.396Z,4.57
2022-10-29T10:14:44.616Z,4.18
2022-10-29T10:22:20.916Z,5.32
2022-10-29T10:30:16.019Z,5.80
2022-10-29T10:37:49.734Z,5.10
2022-10-29T10:45:35.125Z,5.28
2022-10-29T11:00:59.172Z,5.25
2022-10-29T11:08:37.886Z,4.53
2022-10-29T11:16:20.934Z,6.22
2022-10-29T11:24:02.893Z,4.70
2022-10-29T11:31:46.353Z,5.72
2022-10-29T11:39:24.935Z,5.75
2022-10-29T11:47:14.053Z,6.28
2022-10-29T11:55:00.585Z,6.85
2022-10-29T12:02:52.448Z,6.70
2022-10-29T12:10:41.108Z,7.43
2022-10-29T12:18:26.752Z,6.18
2022-10-29T12:26:06.580Z,7.32
2022-10-29T12:33:49.360Z,6.18
2022-10-29T12:41:27.041Z,6.70
2022-10-29T12:49:12.109Z,6.60
2022-10-29T12:56:49.519Z,6.28
2022-10-29T13:04:28.606Z,6.97
2022-10-29T13:12:03.981Z,9.25
2022-10-29T13:19:49.435Z,7.70
2022-10-29T13:27:36.210Z,6.22
2022-10-29T13:35:42.191Z,5.60
2022-10-29T13:50:55.757Z,6.60
2022-10-29T13:58:33.448Z,7.15
2022-10-29T14:06:14.766Z,6.88
2022-10-29T14:13:50.435Z,6.32
2022-10-29T14:21:28.227Z,13.77
2022-10-29T14:29:15.210Z,7.93
2022-10-29T14:36:52.385Z,6.97
2022-10-29T14:44:28.743Z,8.30
2022-10-29T14:52:07.417Z,7.35
2022-10-29T14:59:48.608Z,6.53
2022-10-29T15:07:35.500Z,7.57
2022-10-29T15:15:10.846Z,7.15
2022-10-29T15:22:46.563Z,6.55
2022-10-29T15:30:21.286Z,7.88
2022-10-29T15:37:56.746Z,7.30
2022-10-29T15:45:30.577Z,6.97
2022-10-29T16:00:41.818Z,7.53
2022-10-29T16:08:26.168Z,7.05
2022-10-29T16:15:59.851Z,7.50
2022-10-29T16:23:37.649Z,7.15
2022-10-29T16:31:20.508Z,8.25
2022-10-29T16:38:55.663Z,8.10
2022-10-29T16:54:04.295Z,8.50
2022-10-29T17:01:37.921Z,8.52
2022-10-29T17:09:14.212Z,8.63
2022-10-29T17:16:47.846Z,8.45
2022-10-29T17:24:22.861Z,8.55
2022-10-29T17:39:31.812Z,10.13
2022-10-29T17:54:40.392Z,9.82
2022-10-29T18:09:49.117Z,11.00
2022-10-29T18:24:57.590Z,10.32
2022-10-29T18:40:07.464Z,9.85
2022-10-29T18:47:40.985Z,11.13
2022-10-29T18:55:16.717Z,10.57
2022-10-29T19:02:50.644Z,11.30
2022-10-29T19:10:25.655Z,12.07
2022-10-29T19:25:40.619Z,13.13
2022-10-29T19:33:14.310Z,12.95
2022-10-29T19:40:49.290Z,12.70
2022-10-29T19:55:58.191Z,12.73
2022-10-29T20:03:32.058Z,12.25
2022-10-29T20:11:07.846Z,13.07
2022-10-29T20:18:41.499Z,12.23
2022-10-29T20:26:16.483Z,12.00
2022-10-29T20:41:25.480Z,12.70
2022-10-29T20:48:59.167Z,12.07
2022-10-29T20:56:36.521Z,13.68
2022-10-29T21:04:10.188Z,12.65
2022-10-29T21:11:45.220Z,13.27
2022-10-29T21:26:53.719Z,13.63
2022-10-29T21:42:02.609Z,13.40
2022-10-29T21:57:11.109Z,14.02
2022-10-29T22:12:19.882Z,13.85
2022-10-29T22:19:53.476Z,14.27
2022-10-29T22:27:28.462Z,16.27
2022-10-29T22:42:37.427Z,13.88
2022-10-29T22:50:13.837Z,16.08
2022-10-29T22:57:48.885Z,16.25
2022-10-29T23:12:57.471Z,14.75
2022-10-29T23:28:05.979Z,14.50
2022-10-29T23:43:15.277Z,15.15
2022-10-29T23:50:49.922Z,16.02
2022-10-29T23:58:25.191Z,15.32
